Time;durP1;ratioP1;P1;durP2;ratioP2;P2;SDS_P1;SDS_P2;PMS_P1;PMS_P2;Temp;Humidity;BMP_temperature;BMP_pressure;BME280_temperature;BME280_humidity;BME280_pressure;Samples;Min_cycle;Max_cycle;Signal;HPM_P1;HPM_P2
2021/12/14 00:02:16;;;;;;;8.73;5.95;;;;;;;-0.60;100.00;95108.69;10446048;28;20551;-75
2021/12/14 00:07:19;;;;;;;6.25;5.60;;;;;;;-0.61;100.00;95107.06;10446344;28;20033;-72
2021/12/14 00:17:37;;;;;;;6.00;4.68;;;;;;;-0.53;100.00;95105.06;10447377;28;20061;-71
2021/12/14 00:28:02;;;;;;;9.68;5.28;;;;;;;-0.27;100.00;95113.31;10456832;28;20139;-71
2021/12/14 00:33:07;;;;;;;9.50;5.28;;;;;;;-0.43;100.00;95111.81;10453955;28;20124;-72
2021/12/14 00:38:10;;;;;;;10.52;5.30;;;;;;;-0.22;100.00;95122.28;10428109;28;20033;-70
2021/12/14 00:43:11;;;;;;;11.13;5.20;;;;;;;0.02;100.00;95114.06;10444807;28;20033;-71
2021/12/14 00:48:13;;;;;;;12.48;5.78;;;;;;;0.12;100.00;95111.84;10428489;28;20029;-69
2021/12/14 00:53:14;;;;;;;8.38;5.47;;;;;;;0.16;100.00;95113.09;10444472;28;20029;-71
2021/12/14 00:58:15;;;;;;;6.25;4.53;;;;;;;0.20;100.00;95124.91;10426601;28;20037;-69
2021/12/14 01:03:15;;;;;;;8.50;5.57;;;;;;;0.04;100.00;95117.31;10445374;28;20025;-72
2021/12/14 01:08:20;;;;;;;10.60;5.97;;;;;;;-0.24;100.00;95131.41;10427850;28;20512;-70
2021/12/14 01:13:25;;;;;;;11.55;5.63;;;;;;;-0.14;100.00;95125.78;10444441;28;20078;-73
2021/12/14 01:23:40;;;;;;;10.35;5.90;;;;;;;-0.19;100.00;95121.91;10428727;28;20052;-67
2021/12/14 01:28:43;;;;;;;8.07;5.53;;;;;;;-0.07;100.00;95121.34;10404219;28;20022;-71
2021/12/14 01:33:48;;;;;;;9.23;6.18;;;;;;;-0.02;100.00;95116.28;10402915;28;20037;-72
2021/12/14 01:39:10;;;;;;;6.43;5.28;;;;;;;0.02;100.00;95111.44;10419051;28;20120;-68
2021/12/14 01:44:11;;;;;;;8.63;4.70;;;;;;;-0.03;100.00;95109.34;10418799;28;20025;-71
2021/12/14 01:49:15;;;;;;;8.40;5.03;;;;;;;-0.36;100.00;95110.84;10402355;28;20159;-73
2021/12/14 01:54:21;;;;;;;8.68;5.45;;;;;;;-0.44;100.00;95118.13;10402073;28;20072;-73
2021/12/14 01:59:34;;;;;;;7.30;4.13;;;;;;;-0.39;100.00;95119.16;10418016;28;20032;-67
2021/12/14 02:04:40;;;;;;;7.22;4.80;;;;;;;-0.52;100.00;95117.28;10401758;28;20570;-70
2021/12/14 02:09:41;;;;;;;7.75;5.72;;;;;;;-0.66;100.00;95120.81;10384052;28;20108;-70
2021/12/14 02:14:42;;;;;;;11.02;8.32;;;;;;;-0.79;100.00;95120.75;10417916;28;20036;-71
2021/12/14 02:19:43;;;;;;;9.82;7.20;;;;;;;-0.81;100.00;95113.03;10400565;28;20525;-70
2021/12/14 02:24:47;;;;;;;10.00;6.05;;;;;;;-0.95;100.00;95112.13;10417462;28;20036;-70
2021/12/14 02:29:49;;;;;;;8.73;6.00;;;;;;;-0.88;100.00;95112.16;10401143;28;20546;-70
2021/12/14 02:35:01;;;;;;;9.07;6.60;;;;;;;-0.89;100.00;95119.25;10400617;28;20108;-69
2021/12/14 02:40:15;;;;;;;11.32;6.32;;;;;;;-0.81;100.00;95125.38;10416835;28;20415;-73
2021/12/14 02:45:16;;;;;;;11.77;6.60;;;;;;;-0.71;100.00;95125.88;10400138;28;20481;-78
2021/12/14 02:50:18;;;;;;;10.98;6.78;;;;;;;-0.70;100.00;95130.97;10416385;28;20155;-74
2021/12/14 02:55:24;;;;;;;9.25;6.18;;;;;;;-0.98;100.00;95122.22;10400143;28;20040;-71
2021/12/14 03:00:31;;;;;;;11.75;6.88;;;;;;;-1.09;100.00;95128.84;10416365;28;20086;-71
2021/12/14 03:05:39;;;;;;;11.65;5.88;;;;;;;-1.14;100.00;95129.41;10399599;28;20029;-71
2021/12/14 03:11:10;;;;;;;12.45;7.97;;;;;;;-1.34;100.00;95129.25;10400651;28;20479;-71
2021/12/14 03:16:15;;;;;;;8.30;6.13;;;;;;;-1.26;100.00;95130.94;10416194;28;20037;-71
2021/12/14 03:21:32;;;;;;;12.98;8.80;;;;;;;-1.35;100.00;95132.06;10406009;28;20591;-69
2021/12/14 03:26:36;;;;;;;11.13;7.40;;;;;;;-1.24;100.00;95140.28;10407712;28;20534;-71
2021/12/14 03:31:40;;;;;;;8.32;6.78;;;;;;;-0.96;100.00;95136.03;10424126;28;20110;-73
2021/12/14 03:36:49;;;;;;;11.55;6.45;;;;;;;-0.97;100.00;95145.78;10423887;28;20029;-72
2021/12/14 03:42:19;;;;;;;13.70;7.50;;;;;;;-1.04;100.00;95140.44;10407794;28;20029;-74
2021/12/14 03:47:25;;;;;;;11.48;7.50;;;;;;;-1.18;100.00;95153.72;10406920;28;20494;-69
2021/12/14 03:52:29;;;;;;;12.90;6.45;;;;;;;-1.07;100.00;95154.03;10390437;28;20514;-71
2021/12/14 03:57:30;;;;;;;12.20;6.85;;;;;;;-1.16;100.00;95149.88;10406347;28;20096;-71
2021/12/14 04:02:31;;;;;;;11.90;6.90;;;;;;;-0.95;100.00;95153.50;10407016;28;20461;-73
2021/12/14 04:07:34;;;;;;;14.05;7.25;;;;;;;-0.88;100.00;95163.13;10389653;28;20083;-73
2021/12/14 04:12:35;;;;;;;14.63;8.95;;;;;;;-0.72;100.00;95163.84;10422816;28;20095;-70
2021/12/14 04:17:36;;;;;;;10.60;7.10;;;;;;;-0.71;100.00;95163.63;10389699;28;20128;-71
2021/12/14 04:22:37;;;;;;;12.60;8.20;;;;;;;-0.91;100.00;95163.50;10406718;28;20039;-70
2021/12/14 04:27:38;;;;;;;11.35;7.05;;;;;;;-1.10;100.00;95164.94;10389982;28;20036;-71
2021/12/14 04:32:38;;;;;;;10.82;6.95;;;;;;;-0.95;100.00;95171.97;10404706;28;20586;-70
2021/12/14 04:37:41;;;;;;;9.88;7.40;;;;;;;-1.13;100.00;95175.88;10407395;28;20389;-69
2021/12/14 04:53:22;;;;;;;15.05;8.95;;;;;;;-1.28;100.00;95186.50;10406299;28;20648;-72
2021/12/14 04:58:31;;;;;;;13.23;7.83;;;;;;;-1.28;100.00;95181.22;10420452;28;20026;-71
2021/12/14 05:03:47;;;;;;;16.73;7.85;;;;;;;-1.35;100.00;95185.63;10403854;28;20272;-73
2021/12/14 05:09:20;;;;;;;19.80;9.65;;;;;;;-1.35;100.00;95190.88;10444711;28;20071;-72
2021/12/14 05:14:23;;;;;;;14.85;8.73;;;;;;;-1.36;100.00;95193.72;10420038;28;20091;-73
2021/12/14 05:19:27;;;;;;;18.05;9.10;;;;;;;-1.08;100.00;95199.06;10403915;28;20913;-72
2021/12/14 05:24:29;;;;;;;15.02;9.07;;;;;;;-1.08;100.00;95197.22;10443701;28;20071;-69
2021/12/14 05:29:30;;;;;;;19.90;8.77;;;;;;;-1.15;100.00;95200.81;10428610;28;20104;-72
2021/12/14 05:34:31;;;;;;;19.45;10.68;;;;;;;-1.34;100.00;95199.59;10402819;28;20588;-67
2021/12/14 05:44:41;;;;;;;14.10;8.45;;;;;;;-1.26;100.00;95208.19;10408104;28;20025;-71
2021/12/14 05:49:44;;;;;;;16.70;9.25;;;;;;;-1.16;100.00;95212.38;10431103;28;20086;-75
2021/12/14 05:54:45;;;;;;;18.55;11.20;;;;;;;-1.10;100.00;95214.25;10404609;28;20022;-73
2021/12/14 05:59:47;;;;;;;26.10;10.60;;;;;;;-1.03;100.00;95220.41;10431634;28;20407;-71
2021/12/14 06:04:51;;;;;;;16.75;9.73;;;;;;;-0.93;100.00;95220.09;10416903;28;20636;-74
2021/12/14 06:09:51;;;;;;;20.92;10.65;;;;;;;-1.05;100.00;95227.69;10405181;28;20025;-74
2021/12/14 06:14:55;;;;;;;20.90;9.93;;;;;;;-0.92;100.00;95234.91;10441761;28;20490;-70
2021/12/14 06:20:04;;;;;;;25.33;10.73;;;;;;;-0.90;100.00;95236.34;10441056;28;20048;-73
2021/12/14 06:25:06;;;;;;;;;;;;;;;-0.96;100.00;95233.66;10440839;28;20479;-70
2021/12/14 06:30:15;;;;;;;18.58;11.35;;;;;;;-0.68;100.00;95233.72;10424357;28;19963;-76
2021/12/14 06:35:32;;;;;;;17.75;11.68;;;;;;;-0.55;100.00;95241.72;10442150;28;20490;-70
2021/12/14 06:40:53;;;;;;;17.77;9.80;;;;;;;-0.67;100.00;95240.63;10440494;28;20595;-72
2021/12/14 06:45:57;;;;;;;16.42;9.00;;;;;;;-0.79;100.00;95253.50;10442319;28;20090;-74
2021/12/14 06:51:21;;;;;;;19.67;10.13;;;;;;;-0.87;100.00;95251.00;10440762;28;20414;-73
2021/12/14 06:56:25;;;;;;;15.82;10.85;;;;;;;-0.93;100.00;95273.66;10438572;28;20063;-75
2021/12/14 07:01:30;;;;;;;17.60;10.07;;;;;;;-0.95;100.00;95275.69;10439662;28;20033;-70
2021/12/14 07:06:38;;;;;;;28.10;12.30;;;;;;;-1.00;100.00;95283.34;10440314;28;20095;-73
2021/12/14 07:11:42;;;;;;;18.88;10.43;;;;;;;-1.17;100.00;95279.28;10440414;28;20029;-69
2021/12/14 07:16:46;;;;;;;24.20;11.48;;;;;;;-1.09;100.00;95279.19;10417807;28;20029;-71
2021/12/14 07:21:49;;;;;;;21.70;10.75;;;;;;;-1.03;100.00;95283.72;10392333;28;20068;-72
2021/12/14 07:27:13;;;;;;;24.02;13.45;;;;;;;-1.19;100.00;95297.13;10399758;28;20110;-73
2021/12/14 07:32:14;;;;;;;24.38;13.32;;;;;;;-1.13;100.00;95284.03;10398289;28;20068;-70
2021/12/14 07:37:14;;;;;;;31.13;13.93;;;;;;;-1.19;100.00;95292.66;10398749;28;20127;-68
2021/12/14 07:42:15;;;;;;;22.35;12.80;;;;;;;-1.07;100.00;95298.28;10398587;28;20064;-73
2021/12/14 07:47:19;;;;;;;23.13;12.68;;;;;;;-1.13;100.00;95309.56;10400597;28;20034;-68
2021/12/14 07:52:32;;;;;;;34.05;15.00;;;;;;;-1.18;100.00;95306.69;10398916;28;20112;-73
2021/12/14 07:57:36;;;;;;;30.13;14.73;;;;;;;-1.15;100.00;95317.66;10415366;28;20024;-68
2021/12/14 08:02:43;;;;;;;25.05;14.30;;;;;;;-1.07;100.00;95320.19;10416856;28;20683;-69
2021/12/14 08:07:55;;;;;;;28.90;14.20;;;;;;;-1.06;100.00;95321.00;10406789;28;20083;-70
2021/12/14 08:12:57;;;;;;;27.83;16.17;;;;;;;-1.11;100.00;95326.03;10425972;28;20026;-71
2021/12/14 08:18:09;;;;;;;26.25;15.55;;;;;;;-1.17;100.00;95330.25;10421794;28;20041;-70
2021/12/14 08:23:24;;;;;;;30.63;16.20;;;;;;;-1.04;100.00;95334.84;10422871;28;20051;-73
2021/12/14 08:28:25;;;;;;;33.03;17.90;;;;;;;-1.08;100.00;95334.38;10425758;28;20082;-79
2021/12/14 08:33:28;;;;;;;35.97;16.80;;;;;;;-0.95;100.00;95339.00;10422856;28;20512;-71
2021/12/14 08:38:32;;;;;;;34.20;18.63;;;;;;;-0.98;100.00;95331.44;10422603;28;20469;-75
2021/12/14 08:43:34;;;;;;;40.30;19.00;;;;;;;-0.95;100.00;95323.19;10429920;28;20026;-72
2021/12/14 08:48:38;;;;;;;31.95;17.90;;;;;;;-0.88;100.00;95324.06;10406310;28;20025;-78
2021/12/14 08:53:43;;;;;;;27.88;16.83;;;;;;;-0.79;100.00;95321.31;10404832;28;20044;-75
2021/12/14 08:58:45;;;;;;;43.65;16.73;;;;;;;-0.80;100.00;95325.75;10409012;28;20024;-70
2021/12/14 09:04:01;;;;;;;36.50;17.88;;;;;;;-0.81;100.00;95318.03;10446728;28;20070;-71
2021/12/14 09:09:06;;;;;;;31.98;16.50;;;;;;;-0.79;100.00;95311.56;10429564;28;20146;-71
2021/12/14 09:14:10;;;;;;;38.88;15.52;;;;;;;-0.82;100.00;95313.75;10444133;28;20021;-70
2021/12/14 09:19:16;;;;;;;34.05;18.65;;;;;;;-0.68;100.00;95304.97;10443961;28;20032;-72
2021/12/14 09:24:22;;;;;;;27.58;16.05;;;;;;;-0.60;100.00;95299.56;10444712;28;20221;-72
2021/12/14 09:29:24;;;;;;;29.35;17.20;;;;;;;-0.62;100.00;95293.66;10455762;28;20098;-72
2021/12/14 09:34:27;;;;;;;34.95;18.20;;;;;;;-0.61;100.00;95290.00;10442750;28;20410;-72
2021/12/14 09:39:35;;;;;;;34.35;16.33;;;;;;;-0.54;100.00;95287.44;10443421;28;20029;-71
2021/12/14 09:44:36;;;;;;;43.43;19.63;;;;;;;-0.64;100.00;95284.28;10443739;28;20691;-75
2021/12/14 09:49:38;;;;;;;33.60;18.15;;;;;;;-0.63;100.00;95278.81;10443064;28;20155;-69
2021/12/14 09:54:39;;;;;;;40.63;18.35;;;;;;;-0.75;100.00;95278.50;10443409;28;20041;-73
2021/12/14 09:59:41;;;;;;;31.42;19.83;;;;;;;-0.52;100.00;95273.03;10419301;28;20042;-71
2021/12/14 10:04:49;;;;;;;34.95;17.77;;;;;;;-0.41;100.00;95273.53;10402054;28;20029;-75
2021/12/14 10:09:52;;;;;;;42.88;21.02;;;;;;;-0.24;100.00;95274.88;10401033;28;20029;-72
2021/12/14 10:14:54;;;;;;;32.42;18.98;;;;;;;-0.26;100.00;95274.25;10411936;28;20041;-76
2021/12/14 10:19:55;;;;;;;32.58;18.52;;;;;;;-0.26;100.00;95268.16;10400434;28;20067;-75
2021/12/14 10:25:00;;;;;;;37.97;20.17;;;;;;;-0.42;100.00;95266.59;10400354;28;20037;-73
2021/12/14 10:30:02;;;;;;;40.47;19.15;;;;;;;-0.27;100.00;95262.03;10416193;28;20034;-70
2021/12/14 10:35:11;;;;;;;39.85;21.27;;;;;;;-0.22;100.00;95259.66;10402008;28;20029;-72
2021/12/14 10:45:34;;;;;;;36.08;19.02;;;;;;;-0.18;100.00;95258.25;10407733;28;20036;-70
2021/12/14 10:50:36;;;;;;;38.45;18.67;;;;;;;-0.38;100.00;95250.19;10440942;28;20044;-70
2021/12/14 10:55:45;;;;;;;52.63;22.67;;;;;;;-0.29;100.00;95255.31;10434763;28;20036;-71
2021/12/14 11:01:01;;;;;;;40.75;21.95;;;;;;;-0.32;100.00;95245.97;10441274;28;20032;-71
2021/12/14 11:06:06;;;;;;;48.58;20.20;;;;;;;-0.30;100.00;95243.13;10440620;28;20044;-74
2021/12/14 11:11:12;;;;;;;37.75;19.65;;;;;;;-0.39;100.00;95247.72;10440116;28;20476;-74
2021/12/14 11:16:20;;;;;;;41.15;20.20;;;;;;;-0.31;100.00;95239.66;10440246;28;20355;-72
2021/12/14 11:21:22;;;;;;;46.45;20.80;;;;;;;-0.25;100.00;95233.63;10441210;28;20562;-72
2021/12/14 11:26:34;;;;;;;33.65;18.83;;;;;;;-0.21;100.00;95228.75;10398702;28;20029;-72
2021/12/14 11:31:52;;;;;;;42.72;20.50;;;;;;;-0.21;100.00;95237.50;10415335;28;20851;-71
2021/12/14 11:36:58;;;;;;;43.20;20.48;;;;;;;-0.20;100.00;95230.41;10398789;28;20065;-70
2021/12/14 11:42:10;;;;;;;34.38;18.27;;;;;;;-0.30;100.00;95228.09;10405854;28;20039;-73
2021/12/14 11:52:42;;;;;;;38.35;20.45;;;;;;;-0.16;100.00;95215.78;10407796;28;20045;-70
2021/12/14 11:57:44;;;;;;;43.13;20.77;;;;;;;-0.12;100.00;95216.22;10390600;28;20135;-73
2021/12/14 12:02:45;;;;;;;35.80;20.00;;;;;;;-0.01;100.00;95215.69;10422346;28;20152;-70
2021/12/14 12:13:05;;;;;;;38.97;18.48;;;;;;;0.02;100.00;95214.47;10406493;28;20029;-77
2021/12/14 12:18:05;;;;;;;36.58;18.77;;;;;;;-0.08;100.00;95212.19;10405051;28;20042;-76
2021/12/14 12:23:10;;;;;;;38.47;19.25;;;;;;;0.01;100.00;95216.28;10406444;28;20112;-73
2021/12/14 12:28:13;;;;;;;31.42;17.48;;;;;;;0.09;100.00;95212.69;10437831;28;20016;-70
2021/12/14 12:33:33;;;;;;;35.92;16.70;;;;;;;-0.06;100.00;95200.41;10445841;28;20028;-72
2021/12/14 12:38:46;;;;;;;37.40;18.40;;;;;;;0.06;100.00;95208.59;10428959;28;20032;-69
2021/12/14 12:43:59;;;;;;;36.35;19.95;;;;;;;-0.02;100.00;95206.13;10445358;28;20111;-73
2021/12/14 12:49:26;;;;;;;40.78;19.45;;;;;;;0.05;100.00;95201.69;10445319;28;20175;-73
2021/12/14 12:54:46;;;;;;;45.25;19.38;;;;;;;0.42;100.00;95212.00;10440280;28;20033;-70
2021/12/14 13:00:10;;;;;;;36.20;18.00;;;;;;;0.38;100.00;95213.41;10445420;28;20133;-71
2021/12/14 13:05:23;;;;;;;32.72;17.50;;;;;;;0.15;100.00;95210.09;10445806;28;20478;-71
2021/12/14 13:10:27;;;;;;;52.30;19.20;;;;;;;0.07;100.00;95209.41;10444990;28;20024;-73
2021/12/14 13:15:40;;;;;;;38.40;19.02;;;;;;;0.17;100.00;95208.03;10427911;28;20430;-72
2021/12/14 13:20:41;;;;;;;33.97;17.85;;;;;;;0.24;100.00;95199.31;10444402;28;20526;-75
2021/12/14 13:25:43;;;;;;;38.72;17.50;;;;;;;0.24;100.00;95201.97;10427715;28;20093;-72
2021/12/14 13:30:44;;;;;;;43.65;18.50;;;;;;;0.14;100.00;95203.16;10443698;28;20029;-73
2021/12/14 13:35:44;;;;;;;32.15;17.27;;;;;;;0.42;100.00;95210.19;10443690;28;20411;-72
2021/12/14 13:40:47;;;;;;;33.00;18.08;;;;;;;0.35;100.00;95212.00;10443389;28;20029;-73
2021/12/14 13:45:51;;;;;;;34.08;16.50;;;;;;;0.35;100.00;95217.28;10444299;28;20540;-71
2021/12/14 13:50:56;;;;;;;36.22;18.52;;;;;;;0.41;100.00;95228.91;10442886;28;20017;-72
2021/12/14 13:56:08;;;;;;;39.83;20.85;;;;;;;0.13;100.00;95225.31;10442147;28;20025;-70
2021/12/14 14:01:28;;;;;;;38.65;20.63;;;;;;;0.01;100.00;95218.94;10400981;28;20029;-70
2021/12/14 14:06:30;;;;;;;42.58;20.13;;;;;;;0.14;100.00;95234.88;10400752;28;20033;-74
2021/12/14 14:11:36;;;;;;;40.75;21.00;;;;;;;0.22;100.00;95236.53;10401013;28;20022;-73
2021/12/14 14:16:58;;;;;;;42.30;20.05;;;;;;;0.14;100.00;95234.88;10400618;28;20022;-71
2021/12/14 14:22:13;;;;;;;48.53;21.35;;;;;;;0.07;100.00;95241.94;10385881;28;20037;-72
2021/12/14 14:27:44;;;;;;;41.28;21.20;;;;;;;0.17;100.00;95244.25;10416869;28;20028;-73
2021/12/14 14:33:09;;;;;;;42.83;20.77;;;;;;;0.10;100.00;95246.84;10401343;28;20045;-71
2021/12/14 14:38:33;;;;;;;43.80;21.70;;;;;;;0.06;100.00;95247.44;10416459;28;20454;-71
2021/12/14 14:43:56;;;;;;;46.50;21.63;;;;;;;0.07;100.00;95243.75;10400205;28;20029;-74
2021/12/14 14:48:56;;;;;;;47.05;21.40;;;;;;;-0.02;100.00;95245.75;10400993;28;20406;-71
2021/12/14 14:53:57;;;;;;;51.53;22.73;;;;;;;-0.01;100.00;95242.91;10399306;28;20033;-73
2021/12/14 14:59:15;;;;;;;53.17;22.45;;;;;;;-0.05;100.00;95251.44;10399274;28;20053;-72
2021/12/14 15:04:15;;;;;;;43.97;21.17;;;;;;;-0.05;100.00;95246.16;10399208;28;20037;-71
2021/12/14 15:09:21;;;;;;;40.63;23.02;;;;;;;-0.08;100.00;95243.91;10382464;28;20411;-71
2021/12/14 15:14:31;;;;;;;48.63;23.20;;;;;;;-0.08;100.00;95254.47;10397777;28;20026;-73
2021/12/14 15:19:40;;;;;;;43.05;23.25;;;;;;;0.07;100.00;95260.44;10398562;28;20135;-73
2021/12/14 15:24:43;;;;;;;46.17;21.27;;;;;;;0.02;100.00;95262.03;10398615;28;20099;-74
2021/12/14 15:30:14;;;;;;;52.03;24.80;;;;;;;-0.01;100.00;95264.06;10398674;28;20539;-67
2021/12/14 15:35:31;;;;;;;44.33;20.77;;;;;;;0.05;100.00;95275.66;10398365;28;20067;-70
2021/12/14 15:40:57;;;;;;;51.47;23.50;;;;;;;0.04;100.00;95278.50;10381656;28;20029;-74
2021/12/14 15:46:00;;;;;;;48.78;23.27;;;;;;;0.04;100.00;95279.31;10398492;28;20026;-77
2021/12/14 15:51:00;;;;;;;42.38;19.85;;;;;;;0.08;100.00;95279.75;10397717;28;20034;-69
2021/12/14 15:56:16;;;;;;;44.57;22.90;;;;;;;0.01;100.00;95281.53;10397710;28;20025;-70
2021/12/14 16:01:22;;;;;;;43.92;22.83;;;;;;;0.01;100.00;95287.63;10381641;28;20316;-71
2021/12/14 16:06:22;;;;;;;51.50;23.40;;;;;;;0.02;100.00;95291.91;10397281;28;20032;-68
2021/12/14 16:11:43;;;;;;;50.15;22.13;;;;;;;-0.02;100.00;95294.13;10381804;28;20041;-71
2021/12/14 16:16:44;;;;;;;48.88;22.85;;;;;;;-0.01;100.00;95294.94;10398943;28;20406;-71
2021/12/14 16:21:44;;;;;;;54.00;24.95;;;;;;;-0.10;100.00;95288.16;10398007;28;20064;-69
2021/12/14 16:26:52;;;;;;;49.85;25.13;;;;;;;0.02;100.00;95285.81;10425645;28;20143;-72
2021/12/14 16:31:53;;;;;;;56.70;28.48;;;;;;;-0.02;100.00;95290.66;10447404;28;20033;-74
2021/12/14 16:36:59;;;;;;;50.83;24.25;;;;;;;-0.08;100.00;95291.44;10431217;28;20041;-70
2021/12/14 16:42:09;;;;;;;49.47;25.52;;;;;;;0.07;100.00;95293.97;10404646;28;20113;-74
2021/12/14 16:47:33;;;;;;;54.85;26.17;;;;;;;0.02;100.00;95291.13;10404676;28;20098;-73
2021/12/14 16:52:35;;;;;;;50.03;22.40;;;;;;;0.06;100.00;95289.72;10419989;28;20029;-75
2021/12/14 16:57:36;;;;;;;48.45;25.25;;;;;;;0.13;100.00;95298.50;10403892;28;20037;-73
2021/12/14 17:02:37;;;;;;;52.08;24.50;;;;;;;0.16;100.00;95301.56;10399232;28;20589;-72
2021/12/14 17:07:42;;;;;;;48.53;22.98;;;;;;;0.06;100.00;95302.94;10428079;28;20079;-71
2021/12/14 17:12:43;;;;;;;39.08;21.13;;;;;;;0.07;100.00;95308.03;10444579;28;20025;-73
2021/12/14 17:17:45;;;;;;;53.03;23.25;;;;;;;-0.07;100.00;95307.09;10443447;28;20067;-74
2021/12/14 17:22:45;;;;;;;53.53;22.98;;;;;;;-0.06;100.00;95310.56;10443913;28;20072;-72
2021/12/14 17:27:48;;;;;;;46.55;24.40;;;;;;;-0.18;100.00;95308.44;10427947;28;20119;-78
2021/12/14 17:32:50;;;;;;;46.47;23.17;;;;;;;-0.20;100.00;95301.72;10444011;28;20098;-68
2021/12/14 17:37:52;;;;;;;51.70;24.33;;;;;;;-0.22;100.00;95301.91;10412342;28;20033;-69
2021/12/14 17:42:57;;;;;;;51.42;23.42;;;;;;;-0.24;100.00;95308.38;10403802;28;20103;-73
2021/12/14 17:48:00;;;;;;;54.22;24.42;;;;;;;-0.23;100.00;95310.84;10417824;28;20111;-71
2021/12/14 17:53:06;;;;;;;46.25;23.02;;;;;;;-0.15;100.00;95311.69;10407783;28;20132;-74
2021/12/14 17:58:13;;;;;;;37.08;20.52;;;;;;;0.13;100.00;95317.81;10441277;28;20061;-77
2021/12/14 18:03:19;;;;;;;47.90;21.20;;;;;;;0.04;100.00;95323.44;10442462;28;20399;-78
2021/12/14 18:08:24;;;;;;;42.60;19.90;;;;;;;-0.04;100.00;95314.66;10441339;28;20477;-69
2021/12/14 18:13:29;;;;;;;43.80;20.08;;;;;;;-0.03;100.00;95326.03;10425281;28;20513;-70
2021/12/14 18:19:02;;;;;;;49.20;20.58;;;;;;;-0.15;100.00;95332.84;10456575;28;20053;-72
2021/12/14 18:24:06;;;;;;;37.30;17.02;;;;;;;-0.02;100.00;95330.31;10416034;28;20037;-74
2021/12/14 18:29:15;;;;;;;38.65;19.88;;;;;;;0.05;100.00;95339.09;10399582;28;20030;-72
2021/12/14 18:34:17;;;;;;;38.55;19.50;;;;;;;-0.05;100.00;95342.06;10426299;28;20088;-74
2021/12/14 18:39:21;;;;;;;41.70;19.33;;;;;;;0.08;100.00;95343.19;10400524;28;20044;-75
2021/12/14 18:44:25;;;;;;;38.78;17.42;;;;;;;0.15;100.00;95346.69;10415027;28;20447;-76
2021/12/14 18:49:43;;;;;;;40.10;17.55;;;;;;;0.06;100.00;95343.38;10401569;28;20067;-71
2021/12/14 18:55:01;;;;;;;38.67;17.08;;;;;;;-0.06;100.00;95339.63;10418126;28;20025;-73
2021/12/14 19:00:09;;;;;;;42.10;19.80;;;;;;;-0.13;100.00;95354.59;10418625;28;20139;-70
2021/12/14 19:05:23;;;;;;;42.67;19.20;;;;;;;-0.16;100.00;95361.09;10396428;28;20025;-71
2021/12/14 19:10:35;;;;;;;40.13;18.85;;;;;;;0.04;100.00;95366.53;10417743;28;20108;-73
2021/12/14 19:15:37;;;;;;;37.95;17.92;;;;;;;-0.12;100.00;95364.19;10433619;28;20411;-73
2021/12/14 19:20:45;;;;;;;46.15;18.63;;;;;;;-0.17;100.00;95367.38;10416465;28;20033;-73
2021/12/14 19:25:47;;;;;;;37.38;17.60;;;;;;;-0.21;100.00;95368.75;10417126;28;20034;-73
2021/12/14 19:30:52;;;;;;;39.92;19.33;;;;;;;-0.22;100.00;95373.22;10398088;28;20036;-70
2021/12/14 19:35:52;;;;;;;40.22;17.65;;;;;;;-0.27;100.00;95383.53;10416803;28;20403;-73
2021/12/14 19:41:09;;;;;;;38.35;17.33;;;;;;;-0.28;100.00;95384.56;10414357;28;20026;-76
2021/12/14 19:46:14;;;;;;;35.53;17.00;;;;;;;-0.29;100.00;95374.16;10430622;28;20033;-72
2021/12/14 19:51:37;;;;;;;42.75;18.92;;;;;;;-0.32;100.00;95364.81;10439794;28;20372;-72
2021/12/14 19:56:39;;;;;;;38.55;19.65;;;;;;;-0.40;100.00;95371.03;10439921;28;20033;-71
2021/12/14 20:01:46;;;;;;;40.97;20.10;;;;;;;-0.34;100.00;95369.47;10426534;28;20037;-72
2021/12/14 20:06:52;;;;;;;39.20;19.98;;;;;;;-0.32;100.00;95363.97;10422796;28;20398;-72
2021/12/14 20:11:57;;;;;;;34.35;18.92;;;;;;;-0.33;100.00;95357.09;10405924;28;20021;-74
2021/12/14 20:17:01;;;;;;;38.92;20.25;;;;;;;-0.38;100.00;95361.13;10428073;28;20048;-73
2021/12/14 20:22:06;;;;;;;42.60;18.60;;;;;;;-0.37;100.00;95354.00;10446299;28;20654;-74
2021/12/14 20:27:11;;;;;;;37.83;18.00;;;;;;;-0.23;100.00;95355.75;10447042;28;20478;-72
2021/12/14 20:32:23;;;;;;;39.40;19.38;;;;;;;-0.21;100.00;95356.38;10446355;28;20397;-72
2021/12/14 20:37:28;;;;;;;33.80;18.83;;;;;;;-0.20;100.00;95355.34;10446632;28;20029;-67
2021/12/14 20:47:53;;;;;;;40.22;19.75;;;;;;;0.07;100.00;95370.59;10405168;28;20033;-75
2021/12/14 20:52:58;;;;;;;30.73;16.45;;;;;;;-0.05;100.00;95372.97;10421038;28;20036;-76
2021/12/14 20:58:09;;;;;;;38.28;17.05;;;;;;;-0.10;100.00;95380.63;10404619;28;20026;-76
2021/12/14 21:03:10;;;;;;;35.30;16.75;;;;;;;-0.12;100.00;95380.03;10429961;28;20099;-74
2021/12/14 21:08:16;;;;;;;42.25;20.13;;;;;;;-0.06;100.00;95389.81;10446209;28;20033;-70
2021/12/14 21:13:27;;;;;;;40.63;19.05;;;;;;;-0.28;100.00;95392.50;10444875;28;20044;-72
2021/12/14 21:18:31;;;;;;;48.95;20.90;;;;;;;-0.27;100.00;95401.22;10447104;28;20041;-75
2021/12/14 21:23:32;;;;;;;48.50;20.75;;;;;;;-0.39;100.00;95387.69;10444960;28;20033;-72
2021/12/14 21:28:37;;;;;;;41.70;18.27;;;;;;;-0.39;100.00;95387.69;10445455;28;20479;-73
2021/12/14 21:33:45;;;;;;;33.67;17.23;;;;;;;-0.26;100.00;95377.25;10447307;28;20025;-73
2021/12/14 21:38:58;;;;;;;38.80;17.77;;;;;;;-0.43;100.00;95378.50;10430067;28;20406;-75
2021/12/14 21:49:36;;;;;;;34.30;17.55;;;;;;;-0.26;100.00;95373.81;10449959;28;20104;-78
2021/12/14 21:54:47;;;;;;;40.40;19.95;;;;;;;-0.26;100.00;95379.09;10427019;28;20417;-68
2021/12/14 21:59:51;;;;;;;38.65;17.70;;;;;;;-0.26;100.00;95374.63;10428073;28;20044;-76
2021/12/14 22:04:53;;;;;;;40.67;16.63;;;;;;;-0.22;100.00;95381.16;10444931;28;20029;-73
2021/12/14 22:09:53;;;;;;;41.45;18.75;;;;;;;-0.12;100.00;95375.56;10443246;28;20588;-74
2021/12/14 22:15:00;;;;;;;38.60;17.60;;;;;;;0.20;100.00;95368.06;10444341;28;20032;-80
2021/12/14 22:20:01;;;;;;;37.65;16.83;;;;;;;0.17;100.00;95364.00;10441184;28;20480;-72
2021/12/14 22:25:01;;;;;;;39.67;17.70;;;;;;;0.32;100.00;95363.91;10442728;28;20098;-74
2021/12/14 22:30:04;;;;;;;31.55;16.23;;;;;;;-0.04;100.00;95366.69;10442534;28;20021;-74
2021/12/14 22:35:07;;;;;;;40.05;17.67;;;;;;;-0.16;100.00;95379.56;10442085;28;20021;-71
2021/12/14 22:40:14;;;;;;;32.60;14.32;;;;;;;-0.12;100.00;95369.47;10450412;28;20060;-67
2021/12/14 22:45:16;;;;;;;32.80;15.23;;;;;;;0.00;100.00;95370.59;10441733;28;20052;-70
2021/12/14 22:50:17;;;;;;;37.10;16.67;;;;;;;-0.18;100.00;95360.47;10424427;28;20029;-69
2021/12/14 22:55:21;;;;;;;34.05;16.85;;;;;;;-0.05;100.00;95359.75;10441365;28;20098;-70
2021/12/14 23:00:31;;;;;;;35.35;15.38;;;;;;;-0.24;100.00;95367.34;10443474;28;20029;-73
2021/12/14 23:05:32;;;;;;;35.28;14.35;;;;;;;0.01;100.00;95374.03;10419887;28;20026;-73
2021/12/14 23:10:32;;;;;;;34.88;15.50;;;;;;;0.12;100.00;95369.03;10399840;28;20034;-73
2021/12/14 23:15:51;;;;;;;31.02;14.95;;;;;;;0.00;100.00;95365.28;10399327;28;20394;-73
2021/12/14 23:20:55;;;;;;;34.58;15.45;;;;;;;-0.06;100.00;95358.13;10408740;28;20135;-73
2021/12/14 23:25:55;;;;;;;36.28;15.30;;;;;;;-0.11;100.00;95361.34;10440384;28;20033;-73
2021/12/14 23:30:59;;;;;;;37.47;16.08;;;;;;;-0.14;100.00;95358.25;10439770;28;20029;-71
2021/12/14 23:36:05;;;;;;;40.53;15.77;;;;;;;-0.06;100.00;95355.47;10427685;28;20029;-72
2021/12/14 23:41:06;;;;;;;37.60;16.55;;;;;;;0.05;100.00;95367.34;10450188;28;20450;-71
2021/12/14 23:51:20;;;;;;;39.60;17.85;;;;;;;-0.05;100.00;95359.75;10450059;28;20051;-75
2021/12/14 23:56:21;;;;;;;36.90;14.38;;;;;;;-0.11;100.00;95349.94;10423459;28;20035;-72
